createdAt,value
2018-03-02T00:00:19.925Z,55.19
2018-03-02T00:02:49.001Z,55.96
2018-03-02T00:05:17.377Z,55.48
2018-03-02T00:07:45.684Z,55.88
2018-03-02T00:10:14.953Z,54.86
2018-03-02T00:12:44.076Z,55.12
2018-03-02T00:15:13.343Z,55.46
2018-03-02T00:17:41.669Z,55.20
2018-03-02T00:20:10.923Z,55.99
2018-03-02T00:22:39.259Z,55.87
2018-03-02T00:25:07.579Z,55.03
2018-03-02T00:27:35.898Z,54.03
2018-03-02T00:30:04.219Z,54.27
2018-03-02T00:32:32.547Z,54.63
2018-03-02T00:35:00.876Z,54.85
2018-03-02T00:37:29.268Z,55.28
2018-03-02T00:39:57.632Z,55.23
2018-03-02T00:42:25.950Z,55.52
2018-03-02T00:44:54.275Z,55.43
2018-03-02T00:47:23.377Z,55.44
2018-03-02T00:49:51.704Z,55.62
2018-03-02T00:52:20.033Z,55.29
2018-03-02T00:54:49.125Z,55.52
2018-03-02T00:57:18.378Z,54.86
2018-03-02T00:59:46.740Z,55.22
2018-03-02T01:02:15.066Z,55.69
2018-03-02T01:04:43.400Z,55.80
2018-03-02T01:07:11.716Z,56.21
2018-03-02T01:09:40.067Z,56.51
2018-03-02T01:12:08.420Z,55.91
2018-03-02T01:14:37.500Z,56.01
2018-03-02T01:17:05.828Z,55.47
2018-03-02T01:19:34.160Z,55.97
2018-03-02T01:22:02.480Z,56.21
2018-03-02T01:24:30.840Z,56.36
2018-03-02T01:26:59.157Z,56.69
2018-03-02T01:29:27.590Z,56.40
2018-03-02T01:31:56.700Z,56.93
2018-03-02T01:34:26.586Z,56.90
2018-03-02T01:36:55.008Z,56.76
2018-03-02T01:39:23.341Z,57.14
2018-03-02T01:41:51.669Z,56.86
2018-03-02T01:44:19.990Z,57.18
2018-03-02T01:46:48.326Z,56.63
2018-03-02T01:49:16.672Z,56.57
2018-03-02T01:51:49.913Z,56.97
2018-03-02T01:54:18.250Z,57.15
2018-03-02T01:56:47.340Z,57.20
2018-03-02T01:59:15.679Z,57.24
2018-03-02T02:01:44.012Z,56.95
2018-03-02T02:04:12.335Z,56.97
2018-03-02T02:06:40.649Z,56.65
2018-03-02T02:09:08.964Z,56.71
2018-03-02T02:11:38.053Z,57.06
2018-03-02T02:14:07.149Z,57.60
2018-03-02T02:16:35.480Z,57.47
2018-03-02T02:19:03.829Z,57.43
2018-03-02T02:21:32.332Z,56.96
2018-03-02T02:24:00.656Z,57.29
2018-03-02T02:26:29.231Z,57.88
2018-03-02T02:28:57.553Z,57.31
2018-03-02T02:31:26.670Z,57.53
2018-03-02T02:33:55.167Z,57.64
2018-03-02T02:36:23.484Z,57.72
2018-03-02T02:38:51.822Z,57.50
2018-03-02T02:41:20.286Z,57.66
2018-03-02T02:43:48.626Z,57.68
2018-03-02T02:46:16.951Z,58.04
2018-03-02T02:48:45.280Z,57.87
2018-03-02T02:51:13.601Z,57.41
2018-03-02T02:53:42.790Z,57.45
2018-03-02T02:56:11.884Z,57.43
2018-03-02T02:58:40.212Z,57.91
2018-03-02T03:01:08.548Z,58.14
2018-03-02T03:03:37.724Z,57.95
2018-03-02T03:06:06.047Z,57.96
2018-03-02T03:08:34.376Z,57.84
2018-03-02T03:11:02.722Z,57.72
2018-03-02T03:13:31.040Z,57.56
2018-03-02T03:15:59.388Z,57.34
2018-03-02T03:18:28.572Z,57.37
2018-03-02T03:20:57.002Z,57.31
2018-03-02T03:23:25.323Z,57.37
2018-03-02T03:25:54.554Z,57.19
2018-03-02T03:28:22.878Z,56.99
2018-03-02T03:30:51.207Z,57.55
2018-03-02T03:33:19.615Z,57.95
2018-03-02T03:35:47.960Z,57.75
2018-03-02T03:38:16.316Z,57.34
2018-03-02T03:40:45.398Z,57.63
2018-03-02T03:43:13.724Z,57.73
2018-03-02T03:45:42.144Z,57.82
2018-03-02T03:48:10.474Z,57.84
2018-03-02T03:50:39.554Z,57.61
2018-03-02T03:53:09.123Z,57.07
2018-03-02T03:55:37.441Z,57.55
2018-03-02T03:58:05.770Z,57.44
2018-03-02T04:00:34.095Z,57.38
2018-03-02T04:03:03.262Z,57.36
2018-03-02T04:05:31.612Z,57.76
2018-03-02T04:07:59.926Z,57.77
2018-03-02T04:10:28.250Z,57.36
2018-03-02T04:12:57.328Z,56.97
2018-03-02T04:15:25.664Z,56.90
2018-03-02T04:17:54.328Z,57.41
2018-03-02T04:20:22.780Z,56.43
2018-03-02T04:22:51.150Z,56.75
2018-03-02T04:25:19.474Z,56.62
2018-03-02T04:27:47.792Z,56.67
2018-03-02T04:30:16.120Z,57.23
2018-03-02T04:32:45.234Z,57.02
2018-03-02T04:35:13.550Z,56.90
2018-03-02T04:37:41.907Z,56.97
2018-03-02T04:40:10.219Z,57.43
2018-03-02T04:42:38.552Z,57.60
2018-03-02T04:45:06.886Z,57.64
2018-03-02T04:47:35.211Z,57.71
2018-03-02T04:50:03.585Z,57.51
2018-03-02T04:52:32.684Z,57.73
2018-03-02T04:55:01.802Z,57.80
2018-03-02T04:57:30.134Z,57.36
2018-03-02T04:59:58.552Z,57.70
2018-03-02T05:02:27.646Z,58.09
2018-03-02T05:04:56.766Z,58.03
2018-03-02T05:07:25.198Z,58.18
2018-03-02T05:09:53.517Z,58.21
2018-03-02T05:12:21.857Z,58.10
2018-03-02T05:14:50.216Z,57.94
2018-03-02T05:17:18.586Z,58.13
2018-03-02T05:19:47.078Z,57.87
2018-03-02T05:22:15.406Z,58.01
2018-03-02T05:24:44.508Z,57.87
2018-03-02T05:27:13.582Z,57.64
2018-03-02T05:29:43.447Z,58.02
2018-03-02T05:32:11.776Z,57.93
2018-03-02T05:34:40.872Z,58.05
2018-03-02T05:37:09.195Z,58.14
2018-03-02T05:39:37.520Z,57.86
2018-03-02T05:42:05.888Z,58.07
2018-03-02T05:44:34.224Z,58.07
2018-03-02T05:47:03.338Z,57.40
2018-03-02T05:49:31.658Z,57.64
2018-03-02T05:51:59.978Z,58.16
2018-03-02T05:54:29.176Z,58.45
2018-03-02T05:56:58.305Z,58.20
2018-03-02T05:59:26.636Z,57.97
2018-03-02T06:01:54.957Z,58.32
2018-03-02T06:04:23.283Z,58.47
2018-03-02T06:06:51.604Z,58.24
2018-03-02T06:09:21.568Z,58.77
2018-03-02T06:11:49.878Z,58.39
2018-03-02T06:14:18.182Z,57.97
2018-03-02T06:16:47.227Z,58.28
2018-03-02T06:19:15.551Z,58.72
2018-03-02T06:21:44.750Z,57.93
2018-03-02T06:24:13.832Z,58.60
2018-03-02T06:26:42.490Z,58.41
2018-03-02T06:29:13.938Z,58.44
2018-03-02T06:31:42.252Z,58.65
2018-03-02T06:34:10.592Z,58.47
2018-03-02T06:36:39.093Z,57.91
2018-03-02T06:39:08.232Z,58.08
2018-03-02T06:41:37.327Z,58.52
2018-03-02T06:44:06.452Z,58.27
2018-03-02T06:46:34.782Z,58.09
2018-03-02T06:49:03.874Z,58.25
2018-03-02T06:51:32.278Z,57.94
2018-03-02T06:54:01.384Z,57.00
2018-03-02T06:56:30.520Z,56.94
2018-03-02T06:58:58.828Z,57.00
2018-03-02T07:01:27.137Z,57.20
2018-03-02T07:03:56.244Z,56.87
2018-03-02T07:06:24.621Z,56.66
2018-03-02T07:08:53.732Z,57.01
2018-03-02T07:11:22.048Z,56.79
2018-03-02T07:13:50.379Z,56.35
2018-03-02T07:16:19.489Z,56.21
2018-03-02T07:18:47.812Z,55.74
2018-03-02T07:21:16.150Z,55.64
2018-03-02T07:23:45.249Z,55.94
2018-03-02T07:26:13.571Z,55.82
2018-03-02T07:28:41.924Z,55.53
2018-03-02T07:31:10.255Z,55.05
2018-03-02T07:33:39.370Z,54.98
2018-03-02T07:36:08.476Z,55.18
2018-03-02T07:38:37.916Z,55.11
2018-03-02T07:41:06.292Z,55.12
2018-03-02T07:43:34.595Z,54.43
2018-03-02T07:46:03.417Z,54.26
2018-03-02T07:48:31.740Z,54.26
2018-03-02T07:51:00.081Z,54.33
2018-03-02T07:53:28.437Z,54.22
2018-03-02T07:55:56.835Z,53.85
2018-03-02T07:58:25.195Z,53.20
2018-03-02T08:00:53.537Z,52.75
2018-03-02T08:03:21.872Z,53.23
2018-03-02T08:05:50.196Z,52.00
2018-03-02T08:08:18.660Z,51.54
2018-03-02T08:10:47.056Z,51.01
2018-03-02T08:13:15.396Z,50.62
2018-03-02T08:15:43.734Z,50.04
2018-03-02T08:18:12.055Z,49.79
2018-03-02T08:20:40.385Z,49.92
2018-03-02T08:23:08.801Z,49.35
2018-03-02T08:25:37.127Z,48.89
2018-03-02T08:28:05.439Z,48.56
2018-03-02T08:30:33.779Z,48.66
2018-03-02T08:33:02.213Z,47.09
2018-03-02T08:35:30.527Z,46.89
2018-03-02T08:37:59.644Z,46.76
2018-03-02T08:40:28.753Z,47.00
2018-03-02T08:42:57.184Z,46.52
2018-03-02T08:45:25.521Z,46.28
2018-03-02T08:47:53.869Z,46.12
2018-03-02T08:50:22.183Z,46.20
2018-03-02T08:52:50.545Z,46.03
2018-03-02T08:55:19.733Z,46.29
2018-03-02T08:57:48.060Z,46.47
2018-03-02T09:00:16.500Z,46.32
2018-03-02T09:02:45.634Z,45.61
2018-03-02T09:05:13.953Z,46.01
2018-03-02T09:07:42.327Z,45.63
2018-03-02T09:10:10.754Z,45.93
2018-03-02T09:12:39.873Z,45.20
2018-03-02T09:15:08.201Z,45.25
2018-03-02T09:17:36.563Z,44.92
2018-03-02T09:20:04.884Z,45.21
2018-03-02T09:22:33.993Z,45.36
2018-03-02T09:25:03.066Z,45.50
2018-03-02T09:27:31.380Z,44.82
2018-03-02T09:29:59.777Z,45.11
2018-03-02T09:32:28.874Z,45.06
2018-03-02T09:34:57.189Z,44.95
2018-03-02T09:37:25.524Z,44.87
2018-03-02T09:39:53.846Z,44.73
2018-03-02T09:42:22.157Z,44.95
2018-03-02T09:44:51.293Z,44.89
2018-03-02T09:47:19.736Z,44.48
2018-03-02T09:49:48.059Z,43.61
2018-03-02T09:52:16.397Z,43.58
2018-03-02T09:54:45.492Z,42.90
2018-03-02T09:57:13.867Z,42.08
2018-03-02T09:59:42.191Z,41.85
2018-03-02T10:02:10.502Z,41.36
2018-03-02T10:04:38.809Z,41.04
2018-03-02T10:07:08.034Z,41.21
2018-03-02T10:09:37.099Z,41.32
2018-03-02T10:12:05.431Z,40.66
2018-03-02T10:14:33.744Z,39.84
2018-03-02T10:17:02.105Z,38.51
2018-03-02T10:19:30.524Z,39.21
2018-03-02T10:21:58.854Z,40.09
2018-03-02T10:24:27.191Z,39.45
2018-03-02T10:26:55.511Z,39.56
2018-03-02T10:29:23.889Z,39.79
2018-03-02T10:31:52.213Z,39.76
2018-03-02T10:34:20.620Z,38.63
2018-03-02T10:36:49.030Z,38.33
2018-03-02T10:39:18.146Z,38.13
2018-03-02T10:41:46.577Z,37.50
2018-03-02T10:44:14.888Z,36.88
2018-03-02T10:46:43.994Z,36.92
2018-03-02T10:49:13.278Z,37.21
2018-03-02T10:51:41.611Z,37.34
2018-03-02T10:54:09.941Z,36.33
2018-03-02T10:56:39.045Z,36.72
2018-03-02T10:59:08.278Z,36.63
2018-03-02T11:01:42.138Z,36.26
2018-03-02T11:04:10.469Z,36.21
2018-03-02T11:06:38.825Z,36.31
2018-03-02T11:09:07.157Z,36.32
2018-03-02T11:11:35.475Z,35.59
2018-03-02T11:14:04.555Z,35.68
2018-03-02T11:16:34.609Z,35.76
2018-03-02T11:19:02.943Z,35.50
2018-03-02T11:21:31.254Z,35.38
2018-03-02T11:24:00.351Z,35.57
2018-03-02T11:26:29.492Z,34.58
2018-03-02T11:28:57.807Z,34.69
2018-03-02T11:31:26.137Z,34.72
2018-03-02T11:33:54.451Z,34.13
2018-03-02T11:36:22.859Z,34.18
2018-03-02T11:38:51.997Z,34.35
2018-03-02T11:41:20.318Z,33.58
2018-03-02T11:43:48.653Z,33.61
2018-03-02T11:46:16.978Z,33.68
2018-03-02T11:48:45.409Z,33.45
2018-03-02T11:51:14.492Z,33.55
2018-03-02T11:53:43.629Z,32.59
2018-03-02T11:56:11.969Z,31.62
2018-03-02T11:58:41.237Z,31.35
2018-03-02T12:01:09.571Z,30.68
2018-03-02T12:03:38.033Z,30.69
2018-03-02T12:06:08.241Z,30.52
2018-03-02T12:08:36.573Z,29.86
2018-03-02T12:11:04.878Z,29.89
2018-03-02T12:13:33.291Z,29.83
2018-03-02T12:16:01.633Z,29.79
2018-03-02T12:18:30.001Z,29.43
2018-03-02T12:20:59.149Z,28.69
2018-03-02T12:23:28.225Z,28.52
2018-03-02T12:25:56.564Z,28.27
2018-03-02T12:28:24.913Z,28.01
2018-03-02T12:30:53.252Z,28.28
2018-03-02T12:33:21.545Z,27.23
2018-03-02T12:35:49.884Z,27.05
2018-03-02T12:38:18.397Z,26.47
2018-03-02T12:40:46.721Z,26.39
2018-03-02T12:43:15.082Z,25.80
2018-03-02T12:45:43.366Z,25.88
2018-03-02T12:48:12.450Z,25.06
2018-03-02T12:50:40.860Z,24.61
2018-03-02T12:53:09.967Z,24.25
2018-03-02T12:55:39.052Z,23.71
2018-03-02T12:58:07.381Z,22.72
2018-03-02T13:00:35.727Z,23.21
2018-03-02T13:03:04.017Z,23.22
2018-03-02T13:05:33.116Z,22.69
2018-03-02T13:08:02.195Z,21.97
2018-03-02T13:10:30.522Z,21.91
2018-03-02T13:12:58.848Z,21.58
2018-03-02T13:15:27.173Z,20.94
2018-03-02T13:17:55.472Z,20.42
2018-03-02T13:20:23.817Z,20.85
2018-03-02T13:22:53.731Z,20.71
2018-03-02T13:25:22.826Z,20.21
2018-03-02T13:28:09.913Z,20.03
2018-03-02T13:30:38.232Z,19.24
2018-03-02T13:33:24.229Z,19.23
2018-03-02T13:35:52.576Z,19.34
2018-03-02T13:38:21.658Z,19.35
2018-03-02T13:41:07.666Z,19.29
2018-03-02T13:43:36.783Z,19.18
2018-03-02T13:46:05.202Z,19.88
2018-03-02T13:48:51.357Z,20.28
2018-03-02T13:51:19.748Z,20.42
2018-03-02T13:53:49.607Z,20.82
2018-03-02T13:56:36.572Z,21.29
2018-03-02T13:59:04.939Z,21.51
2018-03-02T14:01:33.259Z,22.17
2018-03-02T14:04:19.408Z,22.74
2018-03-02T14:06:47.760Z,23.00
2018-03-02T14:09:16.897Z,23.58
2018-03-02T14:11:45.215Z,23.72
2018-03-02T14:14:13.557Z,23.73
2018-03-02T14:16:42.033Z,24.13
2018-03-02T14:19:10.338Z,24.40
2018-03-02T14:21:38.650Z,24.24
2018-03-02T14:24:06.983Z,24.41
2018-03-02T14:26:35.293Z,24.42
2018-03-02T14:29:03.635Z,25.01
2018-03-02T14:31:33.414Z,25.32
2018-03-02T14:34:02.523Z,25.83
2018-03-02T14:36:30.939Z,26.00
2018-03-02T14:38:59.255Z,26.31
2018-03-02T14:41:27.555Z,26.08
2018-03-02T14:43:56.036Z,25.62
2018-03-02T14:46:24.355Z,26.12
2018-03-02T14:48:52.665Z,26.53
2018-03-02T14:51:20.964Z,26.74
2018-03-02T14:53:50.229Z,26.92
2018-03-02T14:56:18.631Z,27.50
2018-03-02T14:58:46.939Z,27.71
2018-03-02T15:01:15.261Z,28.01
2018-03-02T15:03:43.605Z,28.10
2018-03-02T15:06:12.675Z,28.42
2018-03-02T15:08:40.975Z,28.30
2018-03-02T15:11:09.274Z,27.67
2018-03-02T15:13:38.409Z,27.47
2018-03-02T15:16:06.723Z,27.49
2018-03-02T15:18:35.077Z,27.34
2018-03-02T15:21:03.388Z,27.92
2018-03-02T15:23:31.703Z,27.87
2018-03-02T15:26:00.105Z,27.88
2018-03-02T15:28:29.084Z,28.13
2018-03-02T15:30:57.491Z,27.93
2018-03-02T15:33:25.824Z,27.71
2018-03-02T15:35:54.893Z,27.64
2018-03-02T15:38:23.222Z,28.00
2018-03-02T15:40:51.622Z,27.96
2018-03-02T15:43:20.641Z,27.31
2018-03-02T15:45:48.941Z,27.35
2018-03-02T15:48:17.249Z,27.04
2018-03-02T15:50:46.320Z,27.10
2018-03-02T15:53:16.143Z,27.63
2018-03-02T15:55:44.621Z,27.61
2018-03-02T15:58:12.969Z,27.87
2018-03-02T16:00:41.282Z,27.99
2018-03-02T16:03:11.109Z,28.46
2018-03-02T16:05:39.445Z,28.99
2018-03-02T16:08:07.758Z,29.83
2018-03-02T16:10:36.972Z,30.38
2018-03-02T16:13:06.084Z,30.46
2018-03-02T16:15:34.393Z,30.71
2018-03-02T16:18:02.721Z,31.26
2018-03-02T16:20:31.017Z,31.86
2018-03-02T16:23:00.093Z,32.21
2018-03-02T16:25:28.415Z,32.24
2018-03-02T16:27:56.728Z,31.99
2018-03-02T16:30:25.058Z,32.29
2018-03-02T16:32:54.137Z,32.52
2018-03-02T16:35:22.462Z,32.92
2018-03-02T16:37:50.791Z,33.55
2018-03-02T16:40:19.120Z,33.42
2018-03-02T16:42:47.420Z,33.88
2018-03-02T16:45:15.737Z,34.32
2018-03-02T16:47:44.083Z,34.74
2018-03-02T16:50:12.383Z,35.00
2018-03-02T16:52:40.681Z,35.48
2018-03-02T16:55:08.981Z,35.45
2018-03-02T16:57:38.099Z,35.80
2018-03-02T17:00:06.463Z,36.18
2018-03-02T17:02:35.584Z,36.77
2018-03-02T17:05:03.905Z,36.69
2018-03-02T17:07:32.229Z,37.60
2018-03-02T17:10:00.595Z,38.24
2018-03-02T17:12:29.690Z,38.18
2018-03-02T17:14:58.783Z,38.74
2018-03-02T17:17:27.088Z,39.19
2018-03-02T17:19:55.454Z,39.50
2018-03-02T17:22:23.797Z,39.79
2018-03-02T17:24:52.115Z,40.34
2018-03-02T17:27:21.214Z,40.49
2018-03-02T17:29:51.082Z,40.36
2018-03-02T17:32:19.413Z,40.96
2018-03-02T17:34:47.867Z,41.35
2018-03-02T17:37:16.310Z,41.76
2018-03-02T17:39:44.649Z,42.26
2018-03-02T17:42:13.900Z,42.55
2018-03-02T17:44:42.217Z,42.66
2018-03-02T17:47:10.553Z,43.04
2018-03-02T17:49:38.911Z,43.08
2018-03-02T17:52:07.253Z,43.40
2018-03-02T17:54:35.580Z,43.20
2018-03-02T17:57:04.179Z,43.10
2018-03-02T17:59:32.538Z,43.24
2018-03-02T18:02:00.855Z,43.46
2018-03-02T18:04:29.198Z,43.48
2018-03-02T18:06:58.294Z,43.27
2018-03-02T18:09:27.389Z,43.35
2018-03-02T18:11:56.513Z,43.60
2018-03-02T18:14:24.904Z,43.68
2018-03-02T18:16:53.762Z,43.41
2018-03-02T18:19:24.987Z,43.76
2018-03-02T18:21:55.818Z,43.55
2018-03-02T18:24:25.151Z,43.64
2018-03-02T18:26:53.506Z,43.57
2018-03-02T18:29:21.950Z,43.66
2018-03-02T18:31:50.305Z,43.65
2018-03-02T18:34:30.537Z,43.95
2018-03-02T18:36:59.649Z,44.06
2018-03-02T18:39:27.966Z,44.19
2018-03-02T18:41:56.300Z,44.03
2018-03-02T18:44:25.416Z,43.92
2018-03-02T18:46:53.739Z,44.26
2018-03-02T18:49:22.080Z,44.08
2018-03-02T18:51:50.434Z,44.27
2018-03-02T18:54:19.517Z,44.00
2018-03-02T18:56:47.846Z,44.41
2018-03-02T18:59:16.166Z,44.45
2018-03-02T19:01:44.512Z,44.53
2018-03-02T19:04:12.838Z,44.30
2018-03-02T19:06:41.171Z,44.51
2018-03-02T19:09:09.494Z,44.24
2018-03-02T19:11:37.814Z,44.48
2018-03-02T19:14:06.980Z,44.65
2018-03-02T19:16:35.289Z,44.80
2018-03-02T19:19:04.483Z,44.89
2018-03-02T19:21:33.606Z,44.77
2018-03-02T19:24:03.453Z,44.82
2018-03-02T19:26:31.785Z,44.82
2018-03-02T19:29:00.897Z,45.04
2018-03-02T19:31:29.223Z,44.80
2018-03-02T19:33:57.627Z,44.93
2018-03-02T19:36:26.756Z,44.72
2018-03-02T19:38:55.251Z,45.11
2018-03-02T19:41:24.759Z,45.22
2018-03-02T19:43:53.542Z,45.16
2018-03-02T19:46:21.927Z,45.20
2018-03-02T19:48:50.633Z,44.69
2018-03-02T19:51:18.982Z,44.72
2018-03-02T19:53:48.327Z,45.13
2018-03-02T19:56:17.058Z,45.29
2018-03-02T19:58:45.422Z,45.35
2018-03-02T20:01:14.183Z,45.63
2018-03-02T20:03:43.428Z,45.48
2018-03-02T20:06:11.718Z,44.95
2018-03-02T20:08:41.120Z,44.96
2018-03-02T20:11:09.955Z,45.58
2018-03-02T20:13:38.335Z,45.94
2018-03-02T20:16:06.658Z,45.77
2018-03-02T20:18:37.235Z,46.00
2018-03-02T20:21:06.041Z,45.96
2018-03-02T20:23:35.854Z,46.00
2018-03-02T20:26:04.241Z,45.97
2018-03-02T20:28:32.566Z,45.87
2018-03-02T20:31:00.961Z,46.23
2018-03-02T20:33:30.119Z,46.21
2018-03-02T20:35:58.906Z,46.13
2018-03-02T20:38:27.421Z,46.29
2018-03-02T20:40:55.820Z,46.32
2018-03-02T20:43:24.941Z,46.43
2018-03-02T20:45:53.266Z,46.35
2018-03-02T20:48:21.824Z,46.53
2018-03-02T20:50:50.215Z,46.98
2018-03-02T20:53:19.374Z,46.95
2018-03-02T20:55:48.491Z,46.76
2018-03-02T20:58:16.909Z,46.81
2018-03-02T21:00:45.223Z,47.27
2018-03-02T21:03:14.319Z,47.34
2018-03-02T21:05:43.444Z,47.37
2018-03-02T21:08:11.936Z,47.30
2018-03-02T21:10:40.303Z,46.75
2018-03-02T21:13:08.628Z,46.83
2018-03-02T21:15:36.947Z,47.01
2018-03-02T21:18:06.037Z,47.27
2018-03-02T21:20:35.182Z,47.07
2018-03-02T21:23:03.547Z,47.01
2018-03-02T21:25:32.643Z,47.01
2018-03-02T21:28:01.049Z,47.09
2018-03-02T21:30:29.373Z,47.20
2018-03-02T21:32:57.715Z,47.08
2018-03-02T21:35:26.033Z,46.98
2018-03-02T21:37:54.353Z,46.99
2018-03-02T21:40:22.697Z,46.63
2018-03-02T21:42:51.800Z,46.76
2018-03-02T21:45:21.039Z,47.09
2018-03-02T21:47:49.351Z,47.25
2018-03-02T21:50:17.704Z,47.46
2018-03-02T21:52:46.865Z,47.54
2018-03-02T21:55:15.992Z,47.04
2018-03-02T21:57:44.324Z,47.30
2018-03-02T22:00:12.658Z,47.46
2018-03-02T22:02:40.976Z,47.52
2018-03-02T22:05:09.307Z,47.53
2018-03-02T22:07:38.434Z,47.68
2018-03-02T22:10:06.795Z,47.54
2018-03-02T22:12:35.232Z,47.93
2018-03-02T22:15:03.652Z,47.82
2018-03-02T22:17:31.959Z,47.56
2018-03-02T22:20:00.288Z,47.75
2018-03-02T22:22:29.427Z,47.55
2018-03-02T22:24:57.749Z,47.51
2018-03-02T22:27:26.113Z,47.68
2018-03-02T22:29:54.455Z,47.73
2018-03-02T22:32:22.799Z,48.02
2018-03-02T22:34:51.127Z,48.13
2018-03-02T22:37:19.470Z,48.01
2018-03-02T22:39:47.785Z,48.05
2018-03-02T22:42:16.186Z,48.35
2018-03-02T22:44:44.560Z,48.74
2018-03-02T22:47:12.894Z,48.66
2018-03-02T22:49:41.208Z,48.40
2018-03-02T22:52:09.525Z,47.96
2018-03-02T22:54:37.861Z,47.98
2018-03-02T22:57:06.370Z,47.88
2018-03-02T22:59:34.693Z,47.79
2018-03-02T23:02:03.027Z,47.61
2018-03-02T23:04:31.348Z,47.93
2018-03-02T23:06:59.688Z,48.16
2018-03-02T23:09:28.024Z,48.51
2018-03-02T23:11:56.326Z,48.48
2018-03-02T23:14:24.724Z,48.67
2018-03-02T23:16:53.048Z,48.88
2018-03-02T23:19:21.988Z,48.70
2018-03-02T23:21:50.306Z,48.83
2018-03-02T23:24:18.630Z,49.18
2018-03-02T23:26:47.739Z,49.46
2018-03-02T23:29:16.830Z,49.10
2018-03-02T23:31:45.919Z,48.85
2018-03-02T23:34:14.995Z,49.02
2018-03-02T23:36:43.326Z,49.04
2018-03-02T23:39:11.650Z,49.33
2018-03-02T23:41:39.978Z,49.64
2018-03-02T23:44:08.320Z,49.50
2018-03-02T23:46:36.654Z,49.63
2018-03-02T23:49:04.986Z,49.70
2018-03-02T23:51:33.482Z,50.26
2018-03-02T23:54:02.696Z,51.17
2018-03-02T23:56:31.074Z,53.46
2018-03-02T23:59:00.167Z,54.95
